createdAt,value
2018-06-03T00:02:35.827Z,20.04
2018-06-03T00:05:37.906Z,20.03
2018-06-03T00:08:40.127Z,20.01
2018-06-03T00:11:43.452Z,19.99
2018-06-03T00:14:45.375Z,19.97
2018-06-03T00:17:47.493Z,19.88
2018-06-03T00:21:01.120Z,19.78
2018-06-03T00:24:03.201Z,19.74
2018-06-03T00:27:05.285Z,19.73
2018-06-03T00:30:07.354Z,19.61
2018-06-03T00:33:09.422Z,19.54
2018-06-03T00:36:23.012Z,19.51
2018-06-03T00:39:25.107Z,19.53
2018-06-03T00:42:27.068Z,19.46
2018-06-03T00:45:29.165Z,19.31
2018-06-03T00:48:33.213Z,19.18
2018-06-03T00:51:35.219Z,19.14
2018-06-03T00:54:37.315Z,19.14
2018-06-03T00:57:39.364Z,19.16
2018-06-03T01:00:41.440Z,19.17
2018-06-03T01:03:43.516Z,19.08
2018-06-03T01:06:45.564Z,19.05
2018-06-03T01:09:47.639Z,18.97
2018-06-03T01:12:49.665Z,18.96
2018-06-03T01:15:51.611Z,19.02
2018-06-03T01:18:53.689Z,19.09
2018-06-03T01:21:56.731Z,19.09
2018-06-03T01:24:58.828Z,19.03
2018-06-03T01:28:00.884Z,18.93
2018-06-03T01:31:04.087Z,18.79
2018-06-03T01:34:06.149Z,18.73
2018-06-03T01:37:08.313Z,18.70
2018-06-03T01:40:10.376Z,18.75
2018-06-03T01:43:12.456Z,18.80
2018-06-03T01:46:14.525Z,18.72
2018-06-03T01:49:16.583Z,18.64
2018-06-03T01:52:18.661Z,18.51
2018-06-03T01:55:20.859Z,18.48
2018-06-03T01:58:22.862Z,18.42
2018-06-03T02:01:24.946Z,18.34
2018-06-03T02:04:27.032Z,18.19
2018-06-03T02:07:29.100Z,18.21
2018-06-03T02:10:31.148Z,18.37
2018-06-03T02:13:34.672Z,18.27
2018-06-03T02:16:36.637Z,18.19
2018-06-03T02:19:38.679Z,18.18
2018-06-03T02:22:40.771Z,18.17
2018-06-03T02:25:42.857Z,18.21
2018-06-03T02:28:44.921Z,18.27
2018-06-03T02:31:46.990Z,18.25
2018-06-03T02:34:49.040Z,18.10
2018-06-03T02:37:51.121Z,18.06
2018-06-03T02:40:53.186Z,18.13
2018-06-03T02:43:55.253Z,18.14
2018-06-03T02:46:57.332Z,18.11
2018-06-03T02:49:59.362Z,18.01
2018-06-03T02:53:01.353Z,18.02
2018-06-03T02:56:04.687Z,18.04
2018-06-03T02:59:06.732Z,17.98
2018-06-03T03:02:09.436Z,17.99
2018-06-03T03:05:11.592Z,17.99
2018-06-03T03:08:13.625Z,17.98
2018-06-03T03:11:15.608Z,17.96
2018-06-03T03:14:17.693Z,17.99
2018-06-03T03:17:19.751Z,18.01
2018-06-03T03:20:21.832Z,17.95
2018-06-03T03:23:23.875Z,17.91
2018-06-03T03:26:25.937Z,17.92
2018-06-03T03:29:27.902Z,17.85
2018-06-03T03:32:30.005Z,17.79
2018-06-03T03:35:32.054Z,17.78
2018-06-03T03:38:35.236Z,17.73
2018-06-03T03:41:37.368Z,17.72
2018-06-03T03:44:40.431Z,17.64
2018-06-03T03:47:42.483Z,17.53
2018-06-03T03:50:44.573Z,17.42
2018-06-03T03:53:46.614Z,17.36
2018-06-03T03:56:48.685Z,17.25
2018-06-03T03:59:50.762Z,17.25
2018-06-03T04:02:52.883Z,17.27
2018-06-03T04:05:54.918Z,17.34
2018-06-03T04:08:56.960Z,17.49
2018-06-03T04:11:59.060Z,17.51
2018-06-03T04:15:01.083Z,17.57
2018-06-03T04:18:03.876Z,17.66
2018-06-03T04:21:06.008Z,17.73
2018-06-03T04:24:09.076Z,17.85
2018-06-03T04:27:11.631Z,17.87
2018-06-03T04:30:13.724Z,17.79
2018-06-03T04:33:16.238Z,17.83
2018-06-03T04:36:18.348Z,17.84
2018-06-03T04:39:20.408Z,17.81
2018-06-03T04:42:22.472Z,17.84
2018-06-03T04:45:24.496Z,18.02
2018-06-03T04:48:26.691Z,18.02
2018-06-03T04:51:29.002Z,17.95
2018-06-03T04:54:31.385Z,17.91
2018-06-03T04:57:34.672Z,17.90
2018-06-03T05:00:36.791Z,17.89
2018-06-03T05:03:38.807Z,17.93
2018-06-03T05:06:40.975Z,17.85
2018-06-03T05:09:42.964Z,17.89
2018-06-03T05:12:46.030Z,17.84
2018-06-03T05:15:47.985Z,17.80
2018-06-03T05:18:49.972Z,17.92
2018-06-03T05:21:52.062Z,18.05
2018-06-03T05:24:54.109Z,18.22
2018-06-03T05:27:56.176Z,18.28
2018-06-03T05:30:58.252Z,18.28
2018-06-03T05:34:00.312Z,18.11
2018-06-03T05:37:02.395Z,18.08
2018-06-03T05:40:04.508Z,18.20
2018-06-03T05:43:06.643Z,18.43
2018-06-03T05:46:08.696Z,18.68
2018-06-03T05:49:10.629Z,18.85
2018-06-03T05:52:12.641Z,18.94
2018-06-03T05:55:14.722Z,18.90
2018-06-03T05:58:16.755Z,18.99
2018-06-03T06:01:18.862Z,19.11
2018-06-03T06:04:21.030Z,19.27
2018-06-03T06:07:23.063Z,19.32
2018-06-03T06:10:25.163Z,19.21
2018-06-03T06:13:27.315Z,19.26
2018-06-03T06:16:29.327Z,19.37
2018-06-03T06:19:31.391Z,19.53
2018-06-03T06:22:33.520Z,19.62
2018-06-03T06:25:36.320Z,19.62
2018-06-03T06:28:38.383Z,19.66
2018-06-03T06:31:40.513Z,19.82
2018-06-03T06:34:42.632Z,19.94
2018-06-03T06:37:44.668Z,19.94
2018-06-03T06:40:46.808Z,20.08
2018-06-03T06:43:48.831Z,20.10
2018-06-03T06:46:51.351Z,20.18
2018-06-03T06:49:53.374Z,20.08
2018-06-03T06:52:55.448Z,20.10
2018-06-03T06:55:58.531Z,20.38
2018-06-03T06:59:00.631Z,20.52
2018-06-03T07:02:02.711Z,20.45
2018-06-03T07:05:05.428Z,20.61
2018-06-03T07:08:07.427Z,20.85
2018-06-03T07:11:09.561Z,21.00
2018-06-03T07:14:11.542Z,21.24
2018-06-03T07:17:13.689Z,21.39
2018-06-03T07:20:15.803Z,21.45
2018-06-03T07:23:17.915Z,21.45
2018-06-03T07:26:19.957Z,21.31
2018-06-03T07:29:22.013Z,21.47
2018-06-03T07:32:24.057Z,21.64
2018-06-03T07:35:26.143Z,21.61
2018-06-03T07:38:28.216Z,21.75
2018-06-03T07:41:30.305Z,21.87
2018-06-03T07:44:32.364Z,21.88
2018-06-03T07:47:35.143Z,21.88
2018-06-03T07:50:37.217Z,21.95
2018-06-03T07:53:39.296Z,22.28
2018-06-03T07:56:41.364Z,22.34
2018-06-03T07:59:43.404Z,22.49
2018-06-03T08:02:45.489Z,22.45
2018-06-03T08:05:47.547Z,22.51
2018-06-03T08:08:49.615Z,22.95
2018-06-03T08:11:51.687Z,23.33
2018-06-03T08:14:53.763Z,23.64
2018-06-03T08:17:55.815Z,23.81
2018-06-03T08:20:57.887Z,23.77
2018-06-03T08:24:00.315Z,23.56
2018-06-03T08:27:02.346Z,23.30
2018-06-03T08:30:05.547Z,23.10
2018-06-03T08:33:07.593Z,23.15
2018-06-03T08:36:09.713Z,23.29
2018-06-03T08:39:11.904Z,23.37
2018-06-03T08:42:13.915Z,23.39
2018-06-03T08:45:16.095Z,23.58
2018-06-03T08:48:18.258Z,23.82
2018-06-03T08:51:20.309Z,23.87
2018-06-03T08:54:22.378Z,23.99
2018-06-03T08:57:25.379Z,24.02
2018-06-03T09:00:27.390Z,23.97
2018-06-03T09:03:29.399Z,24.18
2018-06-03T09:06:31.523Z,24.17
2018-06-03T09:09:33.667Z,24.15
2018-06-03T09:12:36.747Z,24.35
2018-06-03T09:15:38.799Z,24.45
2018-06-03T09:18:40.875Z,24.68
2018-06-03T09:21:43.916Z,25.11
2018-06-03T09:24:45.953Z,25.01
2018-06-03T09:27:47.925Z,24.73
2018-06-03T09:30:54.566Z,24.67
2018-06-03T09:33:56.640Z,25.00
2018-06-03T09:36:58.776Z,25.24
2018-06-03T09:40:00.915Z,25.35
2018-06-03T09:43:02.993Z,25.33
2018-06-03T09:46:05.034Z,25.10
2018-06-03T09:49:06.974Z,25.05
2018-06-03T09:52:09.052Z,25.12
2018-06-03T09:55:11.136Z,25.47
2018-06-03T09:58:13.208Z,25.37
2018-06-03T10:01:15.214Z,24.98
2018-06-03T10:04:17.759Z,24.74
2018-06-03T10:07:19.816Z,24.71
2018-06-03T10:10:21.884Z,24.98
2018-06-03T10:13:23.984Z,25.11
2018-06-03T10:16:26.146Z,25.09
2018-06-03T10:19:28.217Z,25.19
2018-06-03T10:22:31.291Z,25.35
2018-06-03T10:25:33.344Z,25.45
2018-06-03T10:28:35.353Z,25.75
2018-06-03T10:31:37.380Z,25.89
2018-06-03T10:34:39.316Z,25.91
2018-06-03T10:37:41.436Z,25.82
2018-06-03T10:40:43.507Z,26.12
2018-06-03T10:43:45.589Z,26.33
2018-06-03T10:46:47.655Z,26.46
2018-06-03T10:49:49.909Z,26.56
2018-06-03T10:52:52.284Z,26.24
2018-06-03T10:55:54.352Z,25.92
2018-06-03T10:58:56.930Z,26.01
2018-06-03T11:01:59.002Z,25.75
2018-06-03T11:05:01.035Z,25.67
2018-06-03T11:08:03.104Z,25.68
2018-06-03T11:11:05.208Z,25.75
2018-06-03T11:14:07.400Z,25.67
2018-06-03T11:17:09.470Z,25.64
2018-06-03T11:20:11.541Z,26.07
2018-06-03T11:23:13.697Z,25.92
2018-06-03T11:26:16.447Z,26.24
2018-06-03T11:29:18.568Z,26.72
2018-06-03T11:32:20.767Z,26.71
2018-06-03T11:35:22.919Z,26.48
2018-06-03T11:38:25.080Z,26.24
2018-06-03T11:41:27.261Z,26.14
2018-06-03T11:44:30.931Z,26.40
2018-06-03T11:47:32.980Z,26.85
2018-06-03T11:50:34.988Z,27.15
2018-06-03T11:53:36.981Z,27.20
2018-06-03T11:56:50.561Z,27.15
2018-06-03T11:59:52.557Z,27.34
2018-06-03T12:02:54.809Z,27.53
2018-06-03T12:05:57.207Z,27.59
2018-06-03T12:08:59.180Z,27.84
2018-06-03T12:12:03.342Z,27.65
2018-06-03T12:15:05.329Z,27.69
2018-06-03T12:18:07.407Z,27.82
2018-06-03T12:21:09.451Z,27.78
2018-06-03T12:24:11.837Z,27.88
2018-06-03T12:27:13.838Z,27.99
2018-06-03T12:30:15.816Z,28.17
2018-06-03T12:33:17.832Z,28.20
2018-06-03T12:36:19.911Z,28.09
2018-06-03T12:39:21.985Z,28.40
2018-06-03T12:42:24.027Z,28.60
2018-06-03T12:45:26.004Z,28.49
2018-06-03T12:48:28.083Z,28.56
2018-06-03T12:51:30.955Z,28.36
2018-06-03T12:54:33.108Z,28.57
2018-06-03T12:57:36.053Z,28.03
2018-06-03T13:00:38.136Z,27.96
2018-06-03T13:03:40.080Z,27.84
2018-06-03T13:06:42.147Z,28.10
2018-06-03T13:09:44.425Z,27.98
2018-06-03T13:12:46.553Z,28.15
2018-06-03T13:15:48.895Z,28.27
2018-06-03T13:18:51.053Z,28.36
2018-06-03T13:21:53.284Z,28.39
2018-06-03T13:24:56.386Z,28.64
2018-06-03T13:27:58.463Z,28.50
2018-06-03T13:31:01.275Z,28.64
2018-06-03T13:34:04.186Z,28.88
2018-06-03T13:37:09.813Z,28.69
2018-06-03T13:40:11.943Z,28.78
2018-06-03T13:43:14.046Z,28.47
2018-06-03T13:46:16.033Z,28.35
2018-06-03T13:49:18.084Z,28.57
2018-06-03T13:52:20.175Z,28.71
2018-06-03T13:55:23.250Z,28.96
2018-06-03T13:58:25.223Z,29.13
2018-06-03T14:01:27.305Z,29.11
2018-06-03T14:04:29.472Z,29.11
2018-06-03T14:07:31.634Z,29.10
2018-06-03T14:10:33.579Z,29.12
2018-06-03T14:13:35.619Z,29.03
2018-06-03T14:16:37.726Z,28.61
2018-06-03T14:19:40.812Z,28.29
2018-06-03T14:22:42.914Z,28.43
2018-06-03T14:25:46.001Z,28.79
2018-06-03T14:28:48.271Z,28.80
2018-06-03T14:31:50.539Z,28.88
2018-06-03T14:34:52.528Z,29.06
2018-06-03T14:37:54.651Z,29.17
2018-06-03T14:40:56.655Z,29.17
2018-06-03T14:43:59.087Z,29.22
2018-06-03T14:47:01.212Z,29.41
2018-06-03T14:50:03.231Z,29.33
2018-06-03T14:53:05.265Z,29.26
2018-06-03T14:56:07.411Z,28.94
2018-06-03T14:59:09.403Z,29.11
2018-06-03T15:02:12.212Z,29.17
2018-06-03T15:05:14.245Z,29.15
2018-06-03T15:08:17.347Z,29.30
2018-06-03T15:11:19.400Z,29.24
2018-06-03T15:14:21.528Z,29.06
2018-06-03T15:17:23.682Z,28.96
2018-06-03T15:20:25.990Z,28.97
2018-06-03T15:23:28.195Z,29.09
2018-06-03T15:26:31.390Z,29.16
2018-06-03T15:29:33.476Z,29.07
2018-06-03T15:32:35.596Z,29.20
2018-06-03T15:35:37.679Z,29.07
2018-06-03T15:38:39.712Z,29.14
2018-06-03T15:41:41.783Z,29.19
2018-06-03T15:44:43.856Z,29.25
2018-06-03T15:47:45.955Z,29.20
2018-06-03T15:50:48.103Z,29.12
2018-06-03T15:53:50.147Z,29.19
2018-06-03T15:56:52.262Z,29.32
2018-06-03T15:59:54.246Z,29.18
2018-06-03T16:02:56.424Z,28.99
2018-06-03T16:05:58.430Z,29.03
2018-06-03T16:09:01.048Z,29.08
2018-06-03T16:12:03.098Z,29.25
2018-06-03T16:15:05.184Z,29.33
2018-06-03T16:18:07.258Z,29.08
2018-06-03T16:21:09.328Z,28.96
2018-06-03T16:24:11.409Z,28.92
2018-06-03T16:27:13.469Z,29.02
2018-06-03T16:30:16.936Z,28.88
2018-06-03T16:33:19.062Z,28.89
2018-06-03T16:36:21.012Z,28.91
2018-06-03T16:39:23.145Z,28.85
2018-06-03T16:42:25.249Z,28.94
2018-06-03T16:45:27.282Z,28.93
2018-06-03T16:48:29.407Z,28.91
2018-06-03T16:51:32.494Z,28.98
2018-06-03T16:54:34.517Z,29.01
2018-06-03T16:57:37.624Z,28.87
2018-06-03T17:00:39.679Z,28.65
2018-06-03T17:03:41.729Z,28.66
2018-06-03T17:06:43.828Z,28.55
2018-06-03T17:09:45.861Z,28.48
2018-06-03T17:12:47.964Z,28.43
2018-06-03T17:15:50.364Z,28.34
2018-06-03T17:18:52.417Z,28.27
2018-06-03T17:21:55.482Z,28.24
2018-06-03T17:24:57.558Z,28.14
2018-06-03T17:27:59.595Z,28.06
2018-06-03T17:31:02.743Z,28.04
2018-06-03T17:34:04.933Z,27.94
2018-06-03T17:37:07.059Z,27.95
2018-06-03T17:40:09.219Z,28.03
2018-06-03T17:43:11.299Z,28.06
2018-06-03T17:46:13.375Z,27.98
2018-06-03T17:49:15.516Z,27.89
2018-06-03T17:52:17.606Z,27.82
2018-06-03T17:55:19.684Z,27.74
2018-06-03T17:58:21.915Z,27.70
2018-06-03T18:01:24.000Z,27.66
2018-06-03T18:04:26.073Z,27.58
2018-06-03T18:07:28.204Z,27.50
2018-06-03T18:10:30.211Z,27.47
2018-06-03T18:13:32.955Z,27.49
2018-06-03T18:16:35.091Z,27.46
2018-06-03T18:19:38.125Z,27.38
2018-06-03T18:22:40.216Z,27.33
2018-06-03T18:25:42.332Z,27.24
2018-06-03T18:28:44.435Z,27.17
2018-06-03T18:31:46.859Z,27.07
2018-06-03T18:34:48.926Z,26.96
2018-06-03T18:37:51.067Z,26.89
2018-06-03T18:40:53.188Z,26.85
2018-06-03T18:43:55.284Z,26.76
2018-06-03T18:46:57.391Z,26.62
2018-06-03T18:49:59.456Z,26.53
2018-06-03T18:53:02.343Z,26.43
2018-06-03T18:56:04.441Z,26.32
2018-06-03T18:59:06.630Z,26.19
2018-06-03T19:02:09.688Z,26.06
2018-06-03T19:05:11.848Z,26.00
2018-06-03T19:08:13.922Z,25.91
2018-06-03T19:11:16.008Z,25.77
2018-06-03T19:14:18.051Z,25.68
2018-06-03T19:17:20.126Z,25.58
2018-06-03T19:20:22.205Z,25.49
2018-06-03T19:23:24.379Z,25.42
2018-06-03T19:26:26.469Z,25.37
2018-06-03T19:29:28.487Z,25.32
2018-06-03T19:32:30.583Z,25.22
2018-06-03T19:35:33.387Z,25.10
2018-06-03T19:38:35.539Z,25.02
2018-06-03T19:41:37.603Z,24.91
2018-06-03T19:44:39.663Z,24.86
2018-06-03T19:47:41.711Z,24.78
2018-06-03T19:50:43.799Z,24.69
2018-06-03T19:53:46.290Z,24.59
2018-06-03T19:56:48.333Z,24.53
2018-06-03T19:59:50.412Z,24.49
2018-06-03T20:02:53.692Z,24.46
2018-06-03T20:05:55.655Z,24.42
2018-06-03T20:08:57.775Z,24.32
2018-06-03T20:11:59.707Z,24.28
2018-06-03T20:15:03.011Z,24.19
2018-06-03T20:18:05.152Z,24.16
2018-06-03T20:21:07.155Z,24.13
2018-06-03T20:24:09.352Z,24.01
2018-06-03T20:27:11.386Z,24.04
2018-06-03T20:30:13.471Z,24.02
2018-06-03T20:33:15.540Z,23.95
2018-06-03T20:36:17.836Z,23.84
2018-06-03T20:39:19.881Z,23.80
2018-06-03T20:42:21.852Z,23.78
2018-06-03T20:45:23.949Z,23.72
2018-06-03T20:48:25.948Z,23.68
2018-06-03T20:51:28.054Z,23.63
2018-06-03T20:54:30.139Z,23.55
2018-06-03T20:57:33.217Z,23.49
2018-06-03T21:00:35.235Z,23.51
2018-06-03T21:03:37.231Z,23.54
2018-06-03T21:06:39.331Z,23.59
2018-06-03T21:09:41.363Z,23.56
2018-06-03T21:12:43.464Z,23.49
2018-06-03T21:15:45.640Z,23.39
2018-06-03T21:18:47.674Z,23.37
2018-06-03T21:21:49.731Z,23.24
2018-06-03T21:24:51.844Z,23.07
2018-06-03T21:27:54.903Z,22.98
2018-06-03T21:30:56.988Z,22.96
2018-06-03T21:33:59.030Z,22.81
2018-06-03T21:37:01.138Z,22.76
2018-06-03T21:40:04.135Z,22.78
2018-06-03T21:43:06.131Z,22.81
2018-06-03T21:46:08.137Z,22.82
2018-06-03T21:49:10.188Z,22.74
2018-06-03T21:52:12.256Z,22.76
2018-06-03T21:55:14.229Z,22.72
2018-06-03T21:58:16.291Z,22.69
2018-06-03T22:01:18.507Z,22.66
2018-06-03T22:04:20.561Z,22.60
2018-06-03T22:07:22.655Z,22.58
2018-06-03T22:10:24.713Z,22.59
2018-06-03T22:13:26.780Z,22.61
2018-06-03T22:16:28.724Z,22.62
2018-06-03T22:19:30.823Z,22.62
2018-06-03T22:22:34.128Z,22.61
2018-06-03T22:25:36.272Z,22.55
2018-06-03T22:28:38.325Z,22.53
2018-06-03T22:31:40.408Z,22.57
2018-06-03T22:34:43.556Z,22.52
2018-06-03T22:37:45.639Z,22.46
2018-06-03T22:40:47.664Z,22.22
2018-06-03T22:43:49.795Z,22.18
2018-06-03T22:46:51.920Z,22.17
2018-06-03T22:49:53.945Z,22.19
2018-06-03T22:52:56.026Z,22.09
2018-06-03T22:55:57.956Z,22.04
2018-06-03T22:59:00.091Z,21.98
2018-06-03T23:02:02.240Z,21.91
2018-06-03T23:05:05.067Z,21.88
2018-06-03T23:08:10.460Z,21.88
2018-06-03T23:11:13.796Z,21.87
2018-06-03T23:14:15.823Z,21.78
2018-06-03T23:17:17.772Z,21.69
2018-06-03T23:20:19.852Z,21.68
2018-06-03T23:23:21.878Z,21.62
2018-06-03T23:26:23.894Z,21.52
2018-06-03T23:29:26.995Z,21.54
2018-06-03T23:32:29.027Z,21.46
2018-06-03T23:35:31.111Z,21.48
2018-06-03T23:38:34.139Z,21.40
2018-06-03T23:41:36.128Z,21.32
2018-06-03T23:44:38.122Z,21.28
2018-06-03T23:47:40.183Z,21.27
2018-06-03T23:50:42.281Z,21.21
2018-06-03T23:53:44.412Z,21.27
2018-06-03T23:56:47.558Z,21.30
2018-06-03T23:59:49.621Z,21.37
